Time;durP1;ratioP1;P1;durP2;ratioP2;P2;SDS_P1;SDS_P2;PMS_P1;PMS_P2;Temp;Humidity;BMP_temperature;BMP_pressure;BME280_temperature;BME280_humidity;BME280_pressure;Samples;Min_cycle;Max_cycle;Signal;HPM_P1;HPM_P2
2023/06/07 00:01:54;;;;;;;7.63;6.90;;;;;;;16.81;84.85;98240.63;4203619;28;21037;-79
2023/06/07 00:03:57;;;;;;;8.20;7.50;;;;;;;16.77;84.42;98237.47;4197208;28;20665;-80
2023/06/07 00:06:01;;;;;;;9.00;7.00;;;;;;;16.65;83.67;98233.28;4190866;28;20724;-80
2023/06/07 00:08:05;;;;;;;8.27;7.47;;;;;;;16.53;82.69;98231.75;4207666;28;20631;-80
2023/06/07 00:10:09;;;;;;;8.40;7.60;;;;;;;16.47;84.85;98231.50;4200088;28;20675;-80
2023/06/07 00:12:12;;;;;;;8.20;7.37;;;;;;;16.41;83.22;98236.47;4201221;28;20643;-80
2023/06/07 00:14:15;;;;;;;10.27;9.37;;;;;;;16.38;83.69;98234.94;4191280;28;20726;-80
2023/06/07 00:16:18;;;;;;;10.03;8.30;;;;;;;16.40;85.59;98232.16;4200363;28;20640;-80
2023/06/07 00:18:23;;;;;;;8.70;7.40;;;;;;;16.40;86.12;98233.00;4202790;28;20973;-79
2023/06/07 00:20:26;;;;;;;8.50;7.70;;;;;;;16.39;84.27;98238.41;4199019;28;21219;-80
2023/06/07 00:22:33;;;;;;;8.77;7.97;;;;;;;16.33;84.40;98238.97;4198956;28;20660;-80
2023/06/07 00:24:36;;;;;;;8.20;7.40;;;;;;;16.28;85.20;98233.25;4204194;28;20647;-79
2023/06/07 00:26:40;;;;;;;8.27;7.47;;;;;;;16.24;85.96;98226.63;4203386;28;20630;-80
2023/06/07 00:28:43;;;;;;;7.80;7.10;;;;;;;16.22;86.98;98232.03;4200718;28;20705;-80
2023/06/07 00:30:46;;;;;;;8.40;7.60;;;;;;;16.22;86.73;98231.16;4209632;28;20635;-80
2023/06/07 00:32:49;;;;;;;8.37;7.57;;;;;;;16.24;84.84;98232.72;4199653;28;20667;-80
2023/06/07 00:34:54;;;;;;;8.70;7.80;;;;;;;16.23;87.08;98219.69;4203687;28;20679;-80
2023/06/07 00:36:57;;;;;;;8.50;7.70;;;;;;;16.18;86.64;98227.13;4200023;28;20648;-80
2023/06/07 00:39:02;;;;;;;8.37;7.57;;;;;;;16.15;85.48;98227.41;4185765;28;20684;-80
2023/06/07 00:41:05;;;;;;;8.40;7.60;;;;;;;16.09;85.25;98234.03;4184490;28;20650;-80
2023/06/07 00:43:09;;;;;;;8.40;7.60;;;;;;;16.05;84.33;98229.16;4179886;28;20643;-80
2023/06/07 00:45:13;;;;;;;7.40;6.70;;;;;;;15.99;84.61;98223.63;4182464;28;20676;-80
2023/06/07 00:47:16;;;;;;;8.37;7.57;;;;;;;15.93;86.55;98218.91;4201228;28;20627;-80
2023/06/07 00:49:19;;;;;;;8.23;7.43;;;;;;;15.88;85.94;98223.72;4192660;28;21216;-80
2023/06/07 00:51:24;;;;;;;8.33;7.53;;;;;;;15.81;84.39;98218.16;4188971;28;20730;-80
2023/06/07 00:53:28;;;;;;;8.00;7.20;;;;;;;15.77;85.69;98222.03;4191574;28;20710;-80
2023/06/07 00:55:31;;;;;;;8.93;8.10;;;;;;;15.74;85.08;98224.94;4199926;28;20632;-80
2023/06/07 00:57:35;;;;;;;10.53;8.47;;;;;;;15.74;86.45;98227.56;4185107;28;20698;-80
2023/06/07 00:59:39;;;;;;;9.50;8.50;;;;;;;15.73;85.71;98230.31;4186224;28;20645;-80
2023/06/07 01:01:44;;;;;;;8.77;7.90;;;;;;;15.73;87.19;98225.88;4186912;28;20630;-80
2023/06/07 01:03:49;;;;;;;7.90;7.20;;;;;;;15.74;85.65;98227.56;4198390;28;21195;-80
2023/06/07 01:05:52;;;;;;;8.73;7.83;;;;;;;15.75;86.36;98234.47;4196503;28;20659;-80
2023/06/07 01:07:57;;;;;;;8.63;7.80;;;;;;;15.71;85.68;98226.97;4200433;28;20631;-80
2023/06/07 01:10:00;;;;;;;8.10;7.00;;;;;;;15.72;86.22;98231.28;4201536;28;21298;-80
2023/06/07 01:12:08;;;;;;;8.20;7.37;;;;;;;15.72;86.13;98234.72;4201803;28;20713;-80
2023/06/07 01:14:13;;;;;;;8.00;7.30;;;;;;;15.70;86.67;98230.59;4204840;28;20613;-80
2023/06/07 01:16:16;;;;;;;8.50;7.63;;;;;;;15.70;87.85;98230.59;4186507;28;20686;-80
2023/06/07 01:18:19;;;;;;;7.97;7.27;;;;;;;15.69;87.32;98226.28;4190067;28;21196;-80
2023/06/07 01:20:24;;;;;;;9.30;8.20;;;;;;;15.71;87.76;98225.19;4203508;28;20695;-80
2023/06/07 01:22:28;;;;;;;8.27;7.57;;;;;;;15.70;88.03;98231.41;4211518;28;20711;-80
2023/06/07 01:24:35;;;;;;;8.90;8.07;;;;;;;15.68;87.50;98232.50;4189560;28;20725;-80
2023/06/07 01:26:39;;;;;;;9.10;8.07;;;;;;;15.71;88.01;98226.97;4194945;28;21249;-79
2023/06/07 01:28:44;;;;;;;8.97;8.07;;;;;;;15.71;87.57;98227.81;4190158;28;21235;-80
2023/06/07 01:30:48;;;;;;;8.37;7.57;;;;;;;15.71;88.62;98225.19;4206529;28;20742;-80
2023/06/07 01:32:53;;;;;;;8.70;7.90;;;;;;;15.72;87.56;98223.38;4199655;28;20630;-80
2023/06/07 01:34:57;;;;;;;8.00;7.30;;;;;;;15.68;88.23;98228.09;4202746;28;20823;-79
2023/06/07 01:37:01;;;;;;;8.30;7.33;;;;;;;15.63;88.10;98218.91;4202458;28;21013;-80
2023/06/07 01:39:05;;;;;;;8.53;7.73;;;;;;;15.62;85.98;98222.50;4208121;28;20627;-80
2023/06/07 01:41:11;;;;;;;9.73;7.87;;;;;;;15.60;87.15;98222.63;4202940;28;20649;-79
2023/06/07 01:43:14;;;;;;;8.13;7.43;;;;;;;15.58;87.07;98229.84;4187499;28;21961;-80
2023/06/07 01:45:17;;;;;;;9.97;8.50;;;;;;;15.56;86.37;98218.63;4200082;28;20685;-79
2023/06/07 01:47:21;;;;;;;8.10;7.30;;;;;;;15.55;88.34;98226.66;4195472;28;21159;-80
2023/06/07 01:49:24;;;;;;;7.97;7.27;;;;;;;15.50;87.69;98226.22;4184321;28;20654;-80
2023/06/07 01:51:27;;;;;;;7.70;7.00;;;;;;;15.45;87.72;98232.81;4203940;28;20623;-80
2023/06/07 01:53:31;;;;;;;8.30;7.50;;;;;;;15.42;87.85;98227.81;4198009;28;20626;-80
2023/06/07 01:55:35;;;;;;;8.20;7.50;;;;;;;15.40;86.52;98229.75;4200047;28;20636;-80
2023/06/07 01:57:45;;;;;;;8.87;7.97;;;;;;;15.36;87.85;98234.44;4185471;28;21231;-79
2023/06/07 01:59:58;;;;;;;8.80;7.90;;;;;;;15.33;86.46;98225.97;4213869;28;20642;-80
2023/06/07 02:02:08;;;;;;;8.23;7.53;;;;;;;15.28;87.53;98222.91;4198224;28;20616;-79
2023/06/07 02:04:12;;;;;;;8.77;7.87;;;;;;;15.24;87.95;98224.13;4184740;28;20624;-80
2023/06/07 02:06:21;;;;;;;8.10;7.37;;;;;;;15.20;88.11;98220.13;4183566;28;21304;-79
2023/06/07 02:08:29;;;;;;;7.83;7.03;;;;;;;15.22;87.81;98226.06;4199501;28;20760;-80
2023/06/07 02:10:33;;;;;;;8.47;7.67;;;;;;;15.20;87.93;98220.94;4195586;28;20668;-80
2023/06/07 02:12:37;;;;;;;8.43;7.63;;;;;;;15.19;87.94;98219.25;4184553;28;20635;-79
2023/06/07 02:14:43;;;;;;;7.93;7.10;;;;;;;15.16;88.43;98219.50;4204105;28;20631;-79
2023/06/07 02:16:47;;;;;;;8.10;7.30;;;;;;;15.14;88.62;98223.22;4200857;28;20631;-80
2023/06/07 02:18:50;;;;;;;8.40;7.57;;;;;;;15.12;87.41;98217.25;4199064;28;20632;-79
2023/06/07 02:20:53;;;;;;;8.57;7.77;;;;;;;15.08;88.50;98221.94;4203351;28;20623;-79
2023/06/07 02:22:57;;;;;;;9.27;8.27;;;;;;;15.06;88.05;98225.63;4188214;28;21240;-79
2023/06/07 02:25:02;;;;;;;8.40;7.60;;;;;;;15.05;88.62;98220.50;4196807;28;21198;-79
2023/06/07 02:27:06;;;;;;;7.60;6.90;;;;;;;15.03;88.22;98215.38;4188335;28;21234;-79
2023/06/07 02:29:09;;;;;;;8.63;7.83;;;;;;;15.00;87.49;98217.44;4192178;28;21326;-79
2023/06/07 02:31:14;;;;;;;8.07;7.27;;;;;;;14.97;88.55;98215.09;4186230;28;20682;-79
2023/06/07 02:33:21;;;;;;;9.20;8.10;;;;;;;14.94;88.69;98213.53;4201916;28;20729;-79
2023/06/07 02:35:25;;;;;;;9.47;8.33;;;;;;;14.90;87.86;98217.41;4188308;28;20639;-79
2023/06/07 02:37:29;;;;;;;10.57;7.77;;;;;;;14.88;87.75;98216.66;4198862;28;20638;-79
2023/06/07 02:39:34;;;;;;;8.57;7.77;;;;;;;14.84;88.18;98209.19;4188574;28;20640;-79
2023/06/07 02:41:37;;;;;;;8.80;7.90;;;;;;;14.82;88.71;98211.94;4196654;28;20722;-79
2023/06/07 02:43:41;;;;;;;9.20;8.30;;;;;;;14.85;88.02;98213.47;4193665;28;20624;-79
2023/06/07 02:45:44;;;;;;;9.37;8.40;;;;;;;14.84;89.06;98211.81;4201914;28;20696;-79
2023/06/07 02:47:49;;;;;;;8.37;7.60;;;;;;;14.83;88.78;98215.41;4195512;28;21072;-79
2023/06/07 02:49:52;;;;;;;8.90;8.10;;;;;;;14.80;89.16;98216.47;4183116;28;20630;-79
2023/06/07 02:51:55;;;;;;;8.70;7.90;;;;;;;14.74;88.83;98216.16;4206338;28;20635;-79
2023/06/07 02:53:59;;;;;;;9.03;8.20;;;;;;;14.72;88.84;98221.53;4185862;28;20666;-79
2023/06/07 02:56:03;;;;;;;9.43;8.30;;;;;;;14.74;88.57;98227.50;4201414;28;21283;-79
2023/06/07 02:58:06;;;;;;;9.10;8.20;;;;;;;14.73;89.44;98225.00;4194172;28;20722;-79
2023/06/07 03:00:14;;;;;;;8.60;7.80;;;;;;;14.70;88.69;98230.50;4181730;28;20649;-79
2023/06/07 03:02:29;;;;;;;9.10;8.13;;;;;;;14.61;87.99;98226.84;4186633;28;20636;-80
2023/06/07 03:04:34;;;;;;;8.53;7.73;;;;;;;14.53;88.75;98223.19;4197138;28;20645;-79
2023/06/07 03:06:40;;;;;;;9.67;8.77;;;;;;;14.47;88.51;98222.84;4184205;28;21251;-83
2023/06/07 03:08:52;;;;;;;8.97;8.07;;;;;;;14.45;88.65;98219.50;4199124;28;20634;-83
2023/06/07 03:10:58;;;;;;;8.43;7.70;;;;;;;14.47;88.91;98222.84;4195609;28;20642;-83
2023/06/07 03:13:06;;;;;;;8.80;7.80;;;;;;;14.49;89.52;98223.56;4178265;28;20654;-83
2023/06/07 03:15:11;;;;;;;8.93;8.13;;;;;;;14.48;89.23;98227.97;4181614;28;20719;-83
2023/06/07 03:17:18;;;;;;;9.50;8.50;;;;;;;14.43;88.54;98218.81;4202409;28;20632;-83
2023/06/07 03:19:26;;;;;;;9.27;8.37;;;;;;;14.41;88.41;98229.44;4207776;28;21155;-84
2023/06/07 03:21:32;;;;;;;8.87;8.07;;;;;;;14.38;88.59;98231.47;4184221;28;20624;-85
2023/06/07 03:23:39;;;;;;;9.33;8.53;;;;;;;14.36;88.74;98221.09;4186354;28;20634;-84
2023/06/07 03:25:43;;;;;;;9.30;8.40;;;;;;;14.36;88.28;98228.16;4191144;28;21107;-84
2023/06/07 03:27:48;;;;;;;8.90;8.00;;;;;;;14.32;88.23;98226.72;4208786;28;20703;-84
2023/06/07 03:30:00;;;;;;;9.30;8.40;;;;;;;14.29;88.00;98225.16;4216637;28;21096;-85
2023/06/07 03:32:07;;;;;;;9.33;8.40;;;;;;;14.26;88.16;98225.41;4205225;28;21201;-84
2023/06/07 03:34:13;;;;;;;9.20;8.27;;;;;;;14.25;88.12;98231.66;4191464;28;20679;-84
2023/06/07 03:36:20;;;;;;;9.60;8.73;;;;;;;14.23;88.99;98228.28;4201447;28;20637;-85
2023/06/07 03:38:27;;;;;;;9.40;8.40;;;;;;;14.25;88.68;98223.78;4203009;28;20627;-85
2023/06/07 03:40:30;;;;;;;9.20;8.33;;;;;;;14.28;88.75;98238.41;4188487;28;20635;-84
2023/06/07 03:42:35;;;;;;;9.60;8.30;;;;;;;14.30;88.91;98231.28;4209559;28;20680;-85
2023/06/07 03:44:39;;;;;;;9.63;8.63;;;;;;;14.34;88.83;98238.78;4192472;28;20692;-84
2023/06/07 03:46:42;;;;;;;10.00;9.00;;;;;;;14.35;88.66;98237.81;4206869;28;20676;-85
2023/06/07 03:48:46;;;;;;;9.27;8.40;;;;;;;14.37;89.25;98235.06;4201304;28;20851;-83
2023/06/07 03:50:51;;;;;;;10.30;9.30;;;;;;;14.38;89.42;98241.97;4211485;28;20726;-84
2023/06/07 03:52:54;;;;;;;9.00;8.20;;;;;;;14.40;89.67;98242.66;4218510;28;20642;-84
2023/06/07 03:55:00;;;;;;;9.83;8.93;;;;;;;14.42;89.81;98238.16;4200106;28;20729;-83
2023/06/07 03:57:05;;;;;;;9.93;9.03;;;;;;;14.46;89.78;98240.38;4207441;28;20630;-84
2023/06/07 03:59:13;;;;;;;10.27;9.27;;;;;;;14.51;90.10;98240.00;4206703;28;20654;-84
2023/06/07 04:01:18;;;;;;;11.30;10.20;;;;;;;14.55;89.85;98244.88;4199926;28;20728;-84
2023/06/07 04:03:24;;;;;;;12.20;9.67;;;;;;;14.58;89.15;98246.44;4209152;28;20668;-84
2023/06/07 04:05:31;;;;;;;10.60;9.50;;;;;;;14.61;89.87;98247.84;4187906;28;20623;-83
2023/06/07 04:07:34;;;;;;;10.10;9.10;;;;;;;14.68;89.34;98250.81;4200486;28;20662;-85
2023/06/07 04:09:37;;;;;;;9.80;8.80;;;;;;;14.68;89.68;98251.63;4187565;28;20642;-84
2023/06/07 04:11:42;;;;;;;11.00;9.83;;;;;;;14.69;89.97;98241.97;4202466;28;21228;-84
2023/06/07 04:13:45;;;;;;;11.33;10.23;;;;;;;14.72;89.44;98255.69;4197918;28;20630;-84
2023/06/07 04:15:49;;;;;;;11.10;10.10;;;;;;;14.76;89.98;98254.47;4199517;28;21227;-84
2023/06/07 04:17:52;;;;;;;10.90;9.60;;;;;;;14.81;89.21;98260.19;4204046;28;20646;-84
2023/06/07 04:19:56;;;;;;;10.77;9.67;;;;;;;14.85;88.64;98251.06;4199123;28;20631;-84
2023/06/07 04:22:04;;;;;;;10.50;9.50;;;;;;;14.88;90.13;98255.25;4199582;28;20653;-84
2023/06/07 04:24:08;;;;;;;12.73;10.30;;;;;;;14.92;88.77;98254.88;4192362;28;21403;-84
2023/06/07 04:26:11;;;;;;;10.70;9.70;;;;;;;14.96;88.80;98252.81;4201467;28;20658;-84
2023/06/07 04:28:16;;;;;;;12.30;10.70;;;;;;;14.98;88.51;98256.16;4196505;28;20667;-84
2023/06/07 04:30:19;;;;;;;11.50;10.40;;;;;;;15.00;88.36;98249.78;4195740;28;20657;-84
2023/06/07 04:32:25;;;;;;;10.83;9.83;;;;;;;15.06;90.05;98253.72;4195121;28;20638;-84
2023/06/07 04:34:31;;;;;;;12.40;10.40;;;;;;;15.08;90.40;98252.63;4202934;28;20669;-84
2023/06/07 04:36:37;;;;;;;11.23;10.03;;;;;;;15.13;88.73;98253.06;4181948;28;20775;-84
2023/06/07 04:38:46;;;;;;;10.87;9.77;;;;;;;15.17;89.04;98257.97;4186998;28;20626;-84
2023/06/07 04:41:06;;;;;;;11.07;9.97;;;;;;;15.23;89.64;98267.13;4187941;28;20623;-84
2023/06/07 04:43:23;;;;;;;10.47;9.47;;;;;;;15.28;89.21;98262.34;4188271;28;20639;-84
2023/06/07 04:45:31;;;;;;;11.23;10.13;;;;;;;15.33;89.61;98268.03;4183218;28;20639;-84
2023/06/07 04:47:34;;;;;;;11.00;9.53;;;;;;;15.38;89.88;98265.84;4184844;28;22379;-84
2023/06/07 04:49:38;;;;;;;11.57;10.47;;;;;;;15.43;90.30;98274.19;4196413;28;20646;-84
2023/06/07 04:51:42;;;;;;;11.47;10.37;;;;;;;15.45;90.23;98267.00;4195882;28;20644;-84
2023/06/07 04:53:46;;;;;;;10.80;9.80;;;;;;;15.53;90.23;98269.78;4179343;28;20621;-84
2023/06/07 04:55:56;;;;;;;10.03;9.10;;;;;;;15.57;90.27;98275.53;4187840;28;20654;-84
2023/06/07 04:57:59;;;;;;;10.90;9.80;;;;;;;15.61;90.25;98271.66;4192537;28;20655;-84
2023/06/07 05:00:12;;;;;;;10.67;9.57;;;;;;;15.68;89.02;98279.84;4180374;28;20790;-84
2023/06/07 05:02:18;;;;;;;10.87;9.80;;;;;;;15.72;90.19;98274.19;4199300;28;20611;-84
2023/06/07 05:04:22;;;;;;;10.67;9.60;;;;;;;15.78;89.13;98281.53;4193402;28;20734;-84
2023/06/07 05:06:31;;;;;;;11.30;10.27;;;;;;;15.86;88.94;98287.00;4197822;28;20668;-80
2023/06/07 05:08:34;;;;;;;10.63;9.63;;;;;;;15.93;89.09;98282.84;4199907;28;20697;-80
2023/06/07 05:10:37;;;;;;;11.23;10.13;;;;;;;16.00;90.39;98283.16;4203382;28;20652;-80
2023/06/07 05:12:41;;;;;;;10.00;9.00;;;;;;;16.05;87.94;98287.88;4207772;28;20626;-80
2023/06/07 05:14:46;;;;;;;10.53;9.53;;;;;;;16.11;88.75;98289.16;4183310;28;20636;-80
2023/06/07 05:16:53;;;;;;;10.30;9.30;;;;;;;16.15;86.98;98294.03;4192504;28;20853;-80
2023/06/07 05:18:58;;;;;;;10.30;9.37;;;;;;;16.20;87.91;98288.34;4197825;28;20636;-80
2023/06/07 05:21:04;;;;;;;10.87;9.87;;;;;;;16.28;89.81;98296.44;4181997;28;20672;-81
2023/06/07 05:23:07;;;;;;;11.70;10.60;;;;;;;16.36;87.57;98294.81;4192277;28;21317;-80
2023/06/07 05:25:13;;;;;;;12.30;10.23;;;;;;;16.46;88.12;98295.63;4187109;28;20637;-80
2023/06/07 05:27:17;;;;;;;10.30;9.40;;;;;;;16.55;87.07;98286.94;4184124;28;20641;-81
2023/06/07 05:29:20;;;;;;;10.50;9.30;;;;;;;16.66;87.97;98298.19;4203076;28;20637;-80
2023/06/07 05:31:26;;;;;;;10.40;9.43;;;;;;;16.80;86.90;98295.13;4189063;28;20683;-82
2023/06/07 05:33:34;;;;;;;10.53;9.53;;;;;;;16.97;86.05;98298.91;4179653;28;20626;-80
2023/06/07 05:35:44;;;;;;;10.50;9.50;;;;;;;17.13;86.57;98306.09;4178654;28;20643;-82
2023/06/07 05:37:50;;;;;;;10.50;9.40;;;;;;;17.37;87.36;98306.53;4198996;28;20676;-81
2023/06/07 05:39:53;;;;;;;9.03;8.33;;;;;;;17.64;86.30;98310.06;4189752;28;20669;-81
2023/06/07 05:41:56;;;;;;;10.00;9.10;;;;;;;17.93;85.81;98310.81;4186305;28;20629;-84
2023/06/07 05:43:59;;;;;;;9.73;8.83;;;;;;;18.21;83.93;98313.38;4201116;28;20632;-84
2023/06/07 05:46:03;;;;;;;10.13;9.10;;;;;;;18.52;82.87;98306.81;4185783;28;21415;-83
2023/06/07 05:48:06;;;;;;;10.03;9.13;;;;;;;18.85;82.13;98309.63;4186683;28;21257;-83
2023/06/07 05:50:12;;;;;;;10.37;9.20;;;;;;;19.00;80.42;98301.06;4203155;28;20685;-83
2023/06/07 05:52:16;;;;;;;10.63;9.20;;;;;;;19.12;81.13;98302.50;4184340;28;20627;-83
2023/06/07 05:54:19;;;;;;;9.40;8.60;;;;;;;19.30;79.37;98310.44;4195789;28;20645;-83
2023/06/07 05:56:22;;;;;;;10.47;9.43;;;;;;;19.54;79.80;98306.16;4202692;28;20731;-83
2023/06/07 05:58:26;;;;;;;11.00;10.00;;;;;;;19.82;79.70;98311.16;4197390;28;20673;-82
2023/06/07 06:00:30;;;;;;;10.70;9.60;;;;;;;20.09;79.75;98317.13;4195929;28;20641;-82
2023/06/07 06:02:34;;;;;;;9.53;8.63;;;;;;;20.32;77.83;98316.38;4202509;28;20655;-82
2023/06/07 06:04:38;;;;;;;10.13;8.87;;;;;;;20.54;78.54;98309.72;4198963;28;20639;-82
2023/06/07 06:06:42;;;;;;;9.50;8.60;;;;;;;20.65;76.17;98306.75;4198466;28;20702;-82
2023/06/07 06:08:46;;;;;;;9.40;8.60;;;;;;;20.81;76.04;98307.66;4198878;28;20652;-82
2023/06/07 06:10:49;;;;;;;9.60;8.70;;;;;;;20.96;76.39;98309.50;4195286;28;20675;-82
2023/06/07 06:12:53;;;;;;;9.80;9.00;;;;;;;21.12;76.23;98317.47;4199116;28;20738;-82
2023/06/07 06:14:56;;;;;;;9.03;8.13;;;;;;;21.36;75.80;98320.16;4193738;28;20632;-82
2023/06/07 06:16:59;;;;;;;10.63;9.53;;;;;;;21.57;75.48;98313.38;4196985;28;20632;-81
2023/06/07 06:19:03;;;;;;;9.57;8.67;;;;;;;21.73;73.97;98313.38;4200915;28;20638;-81
2023/06/07 06:21:06;;;;;;;10.83;8.77;;;;;;;21.86;74.30;98305.69;4185001;28;20659;-81
2023/06/07 06:23:11;;;;;;;10.03;9.13;;;;;;;22.14;74.80;98313.09;4202849;28;20640;-81
2023/06/07 06:25:14;;;;;;;9.10;8.27;;;;;;;22.39;75.24;98312.88;4185209;28;20625;-81
2023/06/07 06:27:19;;;;;;;8.93;8.03;;;;;;;22.64;75.03;98311.75;4197470;28;20639;-81
2023/06/07 06:29:22;;;;;;;8.03;7.33;;;;;;;22.84;74.07;98318.31;4194536;28;20667;-81
2023/06/07 06:31:25;;;;;;;9.53;8.60;;;;;;;22.96;71.68;98316.97;4188779;28;20689;-81
2023/06/07 06:33:28;;;;;;;8.57;7.77;;;;;;;23.18;73.85;98310.81;4207530;28;20664;-81
2023/06/07 06:35:32;;;;;;;7.83;7.13;;;;;;;23.39;71.50;98309.97;4203886;28;21248;-81
2023/06/07 06:37:36;;;;;;;7.70;7.00;;;;;;;23.63;71.22;98314.28;4205419;28;20656;-81
2023/06/07 06:39:40;;;;;;;6.87;6.27;;;;;;;23.82;70.18;98320.78;4185006;28;20678;-82
2023/06/07 06:41:43;;;;;;;6.73;6.13;;;;;;;23.97;71.18;98321.63;4199432;28;20644;-82
2023/06/07 06:43:54;;;;;;;6.57;5.97;;;;;;;24.11;69.43;98318.13;4203583;28;20638;-81
2023/06/07 06:45:57;;;;;;;6.63;6.03;;;;;;;24.25;69.56;98306.63;4187261;28;20632;-82
2023/06/07 06:48:00;;;;;;;6.80;6.10;;;;;;;24.42;68.21;98319.66;4196949;28;20630;-82
2023/06/07 06:50:04;;;;;;;4.43;4.03;;;;;;;24.56;67.74;98318.81;4197801;28;20638;-81
2023/06/07 06:52:21;;;;;;;4.73;4.33;;;;;;;24.53;68.21;98321.84;4200223;28;20668;-81
2023/06/07 06:54:24;;;;;;;4.10;3.70;;;;;;;24.81;67.02;98312.97;4197088;28;20632;-81
2023/06/07 06:56:29;;;;;;;4.30;3.90;;;;;;;25.01;66.25;98321.25;4195175;28;20641;-81
2023/06/07 06:58:34;;;;;;;3.90;3.50;;;;;;;25.18;65.14;98328.81;4198417;28;20984;-81
2023/06/07 07:00:40;;;;;;;3.97;3.57;;;;;;;25.17;64.99;98325.31;4186797;28;20629;-81
2023/06/07 07:02:43;;;;;;;4.00;3.70;;;;;;;25.32;65.85;98323.44;4202158;28;20644;-81
2023/06/07 07:04:46;;;;;;;4.20;3.80;;;;;;;25.53;65.18;98333.28;4199089;28;21204;-81
2023/06/07 07:06:49;;;;;;;3.53;3.23;;;;;;;25.69;64.26;98321.34;4213121;28;20660;-81
2023/06/07 07:08:52;;;;;;;3.30;3.00;;;;;;;25.73;63.46;98322.59;4202143;28;20733;-81
2023/06/07 07:10:56;;;;;;;5.10;3.07;;;;;;;25.81;64.12;98322.44;4198590;28;20635;-81
2023/06/07 07:13:00;;;;;;;3.47;3.10;;;;;;;25.94;63.89;98321.75;4196850;28;20628;-81
2023/06/07 07:15:04;;;;;;;3.93;3.53;;;;;;;26.00;64.19;98319.13;4182963;28;21301;-80
2023/06/07 07:17:07;;;;;;;3.73;3.40;;;;;;;26.07;63.09;98324.50;4181003;28;20644;-80
2023/06/07 07:19:13;;;;;;;2.83;2.63;;;;;;;26.13;62.38;98317.34;4200682;28;20733;-81
2023/06/07 07:21:16;;;;;;;3.00;2.80;;;;;;;26.16;63.20;98314.28;4195273;28;20639;-80
2023/06/07 07:23:20;;;;;;;3.70;3.40;;;;;;;26.31;63.22;98317.72;4199427;28;21205;-80
2023/06/07 07:25:23;;;;;;;3.67;3.37;;;;;;;26.32;61.97;98318.53;4186469;28;20654;-80
2023/06/07 07:27:26;;;;;;;3.53;3.23;;;;;;;26.11;62.43;98316.72;4196591;28;21022;-81
2023/06/07 07:29:30;;;;;;;3.17;2.87;;;;;;;25.76;62.51;98314.19;4195693;28;20716;-80
2023/06/07 07:31:36;;;;;;;3.27;2.97;;;;;;;25.46;63.80;98298.47;4195500;28;20680;-80
2023/06/07 07:33:39;;;;;;;3.47;2.90;;;;;;;25.65;64.70;98303.22;4189000;28;20643;-80
2023/06/07 07:35:43;;;;;;;3.07;2.87;;;;;;;25.82;64.94;98299.22;4195746;28;20631;-81
2023/06/07 07:37:46;;;;;;;4.00;3.70;;;;;;;25.72;63.70;98304.91;4183643;28;20652;-80
2023/06/07 07:39:50;;;;;;;3.80;3.50;;;;;;;25.90;65.20;98312.44;4183180;28;21425;-80
2023/06/07 07:41:55;;;;;;;3.40;3.10;;;;;;;26.24;64.06;98306.09;4194795;28;20701;-80
2023/06/07 07:43:58;;;;;;;3.83;3.53;;;;;;;26.56;65.63;98311.66;4196730;28;20634;-80
2023/06/07 07:46:03;;;;;;;3.20;2.90;;;;;;;26.71;65.07;98296.28;4202123;28;20665;-80
2023/06/07 07:48:06;;;;;;;3.40;3.10;;;;;;;26.86;65.30;98302.31;4202877;28;21214;-80
2023/06/07 07:50:10;;;;;;;3.43;2.87;;;;;;;27.12;62.79;98303.25;4191770;28;20657;-81
2023/06/07 07:52:13;;;;;;;5.63;3.63;;;;;;;27.34;62.09;98310.09;4178548;28;20682;-80
2023/06/07 07:54:17;;;;;;;3.40;3.10;;;;;;;27.53;60.17;98317.38;4197231;28;20725;-80
2023/06/07 07:56:21;;;;;;;3.30;3.00;;;;;;;27.53;61.83;98307.47;4192292;28;20648;-80
2023/06/07 07:58:25;;;;;;;3.20;2.90;;;;;;;27.09;61.65;98301.00;4187290;28;21312;-80
2023/06/07 08:00:28;;;;;;;3.80;3.07;;;;;;;26.73;63.05;98293.41;4201198;28;20956;-80
2023/06/07 08:02:33;;;;;;;2.80;2.60;;;;;;;26.80;61.35;98291.59;4188220;28;21256;-80
2023/06/07 08:04:36;;;;;;;3.43;3.13;;;;;;;26.74;61.70;98289.72;4207986;28;20636;-80
2023/06/07 08:06:39;;;;;;;3.30;2.67;;;;;;;26.96;61.20;98296.59;4196391;28;20665;-80
2023/06/07 08:08:42;;;;;;;3.03;2.73;;;;;;;27.17;60.78;98303.47;4201848;28;20637;-80
2023/06/07 08:10:46;;;;;;;3.67;3.37;;;;;;;27.39;59.68;98302.25;4197497;28;20658;-80
2023/06/07 08:12:49;;;;;;;3.33;3.03;;;;;;;27.55;58.74;98304.59;4198137;28;21499;-80
2023/06/07 08:14:53;;;;;;;4.97;2.90;;;;;;;27.70;61.51;98302.53;4198469;28;20628;-80
2023/06/07 08:16:56;;;;;;;3.00;2.70;;;;;;;27.73;61.00;98304.81;4201552;28;20986;-80
2023/06/07 08:19:02;;;;;;;3.57;3.27;;;;;;;27.41;59.90;98294.00;4210894;28;20630;-81
2023/06/07 08:21:06;;;;;;;3.27;2.97;;;;;;;27.15;61.94;98285.94;4199505;28;21160;-80
2023/06/07 08:23:09;;;;;;;3.47;3.17;;;;;;;27.01;60.72;98286.94;4201824;28;20629;-80
2023/06/07 08:25:14;;;;;;;3.07;2.77;;;;;;;26.88;61.62;98291.41;4202370;28;20642;-81
2023/06/07 08:27:17;;;;;;;3.13;2.83;;;;;;;27.00;60.56;98290.63;4190589;28;20635;-80
2023/06/07 08:29:20;;;;;;;2.77;2.57;;;;;;;27.25;61.96;98292.56;4197591;28;20723;-80
2023/06/07 08:31:27;;;;;;;2.80;2.60;;;;;;;27.54;62.36;98297.56;4184570;28;20639;-81
2023/06/07 08:33:30;;;;;;;3.50;3.10;;;;;;;27.65;58.77;98296.97;4200817;28;20685;-81
2023/06/07 08:35:35;;;;;;;3.07;2.77;;;;;;;27.75;60.28;98295.50;4188481;28;20641;-81
2023/06/07 08:37:38;;;;;;;3.00;2.70;;;;;;;27.86;59.85;98291.38;4199984;28;21245;-80
2023/06/07 08:39:41;;;;;;;3.13;2.83;;;;;;;28.11;60.94;98295.91;4199471;28;20636;-80
2023/06/07 08:41:44;;;;;;;3.27;2.97;;;;;;;28.24;58.79;98298.59;4182632;28;20639;-81
2023/06/07 08:43:49;;;;;;;3.40;3.10;;;;;;;28.26;60.01;98288.47;4196263;28;20643;-80
2023/06/07 08:45:53;;;;;;;3.00;2.70;;;;;;;28.31;57.53;98286.81;4196444;28;20647;-81
2023/06/07 08:47:58;;;;;;;3.10;2.80;;;;;;;28.19;57.54;98285.81;4182283;28;21281;-81
2023/06/07 08:50:01;;;;;;;5.30;2.73;;;;;;;27.96;57.69;98286.44;4201105;28;20649;-80
2023/06/07 08:52:09;;;;;;;2.70;2.50;;;;;;;27.56;59.64;98276.75;4197644;28;21197;-80
2023/06/07 08:54:18;;;;;;;2.60;2.40;;;;;;;27.41;60.15;98276.09;4197229;28;20745;-81
2023/06/07 08:56:21;;;;;;;2.40;2.20;;;;;;;27.07;58.61;98272.72;4179706;28;20628;-80
2023/06/07 08:58:25;;;;;;;3.00;2.70;;;;;;;26.81;59.11;98266.47;4185153;28;20688;-81
2023/06/07 09:00:29;;;;;;;3.03;2.20;;;;;;;26.95;60.78;98273.53;4195239;28;20636;-81
2023/06/07 09:02:32;;;;;;;4.77;3.03;;;;;;;27.32;60.43;98279.16;4198897;28;20675;-81
2023/06/07 09:04:36;;;;;;;2.53;2.20;;;;;;;27.63;60.57;98277.56;4197548;28;20631;-81
2023/06/07 09:06:39;;;;;;;2.33;2.13;;;;;;;27.72;59.99;98284.38;4195619;28;20662;-81
2023/06/07 09:08:44;;;;;;;2.10;1.73;;;;;;;27.60;60.12;98284.19;4200636;28;20659;-81
2023/06/07 09:10:47;;;;;;;2.20;1.80;;;;;;;27.78;60.00;98281.69;4187893;28;20652;-80
2023/06/07 09:12:50;;;;;;;2.53;2.00;;;;;;;27.74;58.19;98282.28;4203189;28;20769;-81
2023/06/07 09:14:53;;;;;;;2.30;2.10;;;;;;;27.63;59.02;98274.88;4194252;28;20848;-81
2023/06/07 09:16:57;;;;;;;2.70;2.43;;;;;;;27.77;59.92;98287.25;4197732;28;20220;-81
2023/06/07 09:19:01;;;;;;;2.40;2.13;;;;;;;27.71;58.66;98285.38;4199140;28;20634;-80
2023/06/07 09:21:19;;;;;;;2.90;2.10;;;;;;;27.25;58.61;98278.34;4188361;28;20642;-80
2023/06/07 09:23:22;;;;;;;2.10;1.90;;;;;;;26.91;59.43;98270.41;4197243;28;20634;-80
2023/06/07 09:25:27;;;;;;;1.90;1.70;;;;;;;26.94;59.01;98271.88;4197545;28;20984;-80
2023/06/07 09:27:30;;;;;;;2.30;2.00;;;;;;;26.96;59.22;98277.84;4199128;28;20635;-80
2023/06/07 09:29:40;;;;;;;2.03;1.83;;;;;;;26.93;59.12;98267.53;4198308;28;20652;-80
2023/06/07 09:31:43;;;;;;;2.17;1.87;;;;;;;27.09;61.90;98270.66;4181837;28;20657;-80
2023/06/07 09:33:46;;;;;;;1.73;1.60;;;;;;;27.27;59.27;98273.59;4196695;28;20694;-80
2023/06/07 09:36:03;;;;;;;2.20;2.00;;;;;;;27.31;59.15;98270.28;4192736;28;20682;-81
2023/06/07 09:38:06;;;;;;;2.27;2.07;;;;;;;27.18;58.53;98266.78;4199613;28;20996;-81
2023/06/07 09:40:10;;;;;;;2.30;2.10;;;;;;;27.04;58.36;98259.75;4204722;28;20996;-81
2023/06/07 09:42:18;;;;;;;2.50;2.30;;;;;;;26.97;59.45;98263.44;4198293;28;20636;-81
2023/06/07 09:44:22;;;;;;;2.50;2.30;;;;;;;27.10;60.93;98259.75;4202267;28;20626;-81
2023/06/07 09:46:35;;;;;;;2.13;1.93;;;;;;;27.10;58.73;98254.38;4199703;28;20627;-82